Time;durP1;ratioP1;P1;durP2;ratioP2;P2;SDS_P1;SDS_P2;PMS_P1;PMS_P2;Temp;Humidity;BMP_temperature;BMP_pressure;BME280_temperature;BME280_humidity;BME280_pressure;Samples;Min_cycle;Max_cycle;Signal;HPM_P1;HPM_P2
2022/04/03 00:01:42;;;;;;;20.52;10.23;;;;;;;;;;6180161;23;20009;-54
2022/04/03 00:04:07;;;;;;;18.13;10.00;;;;;;;;;;6178871;23;20028;-51
2022/04/03 00:06:32;;;;;;;16.58;9.35;;;;;;;;;;6178064;23;20060;-49
2022/04/03 00:08:58;;;;;;;12.80;8.27;;;;;;;;;;6179033;23;20474;-47
2022/04/03 00:11:23;;;;;;;15.38;8.52;;;;;;;;;;6177076;23;20048;-49
2022/04/03 00:13:49;;;;;;;16.58;7.90;;;;;;;;;;6178902;23;20114;-52
2022/04/03 00:16:14;;;;;;;14.65;8.02;;;;;;;;;;6151539;23;20017;-46
2022/04/03 00:18:40;;;;;;;14.00;8.48;;;;;;;;;;6179548;23;20023;-52
2022/04/03 00:21:05;;;;;;;11.93;6.75;;;;;;;;;;6178973;23;20096;-49
2022/04/03 00:23:30;;;;;;;14.20;6.60;;;;;;;;;;6177646;23;20079;-51
2022/04/03 00:25:56;;;;;;;12.00;7.20;;;;;;;;;;6180864;23;20024;-51
2022/04/03 00:28:22;;;;;;;14.35;6.53;;;;;;;;;;6178442;23;20017;-50
2022/04/03 00:30:47;;;;;;;16.45;7.05;;;;;;;;;;6179686;23;20016;-49
2022/04/03 00:33:12;;;;;;;12.00;7.15;;;;;;;;;;6177076;23;20028;-52
2022/04/03 00:35:38;;;;;;;11.43;6.75;;;;;;;;;;6179179;23;20024;-46
2022/04/03 00:38:03;;;;;;;11.38;6.97;;;;;;;;;;6177385;23;20028;-48
2022/04/03 00:40:29;;;;;;;14.38;7.43;;;;;;;;;;6178258;23;20048;-47
2022/04/03 00:42:55;;;;;;;11.80;6.72;;;;;;;;;;6177641;23;20009;-48
2022/04/03 00:45:20;;;;;;;8.57;6.50;;;;;;;;;;6178799;23;20084;-47
2022/04/03 00:47:54;;;;;;;15.52;7.68;;;;;;;;;;6178769;23;20025;-51
2022/04/03 00:50:20;;;;;;;10.57;7.22;;;;;;;;;;6178239;23;20407;-51
2022/04/03 00:52:45;;;;;;;12.15;7.75;;;;;;;;;;6178796;23;20040;-52
2022/04/03 00:55:11;;;;;;;17.10;8.60;;;;;;;;;;6179074;23;20037;-47
2022/04/03 00:57:36;;;;;;;9.77;6.90;;;;;;;;;;6178771;23;20037;-52
2022/04/03 01:00:02;;;;;;;14.90;8.98;;;;;;;;;;6179001;23;20033;-50
2022/04/03 01:02:28;;;;;;;9.45;6.57;;;;;;;;;;6177203;23;20025;-51
2022/04/03 01:04:53;;;;;;;13.93;7.35;;;;;;;;;;6178468;23;20028;-49
2022/04/03 01:07:18;;;;;;;8.02;5.55;;;;;;;;;;6177917;23;20567;-50
2022/04/03 01:09:44;;;;;;;9.20;5.93;;;;;;;;;;6179236;23;20035;-50
2022/04/03 01:12:10;;;;;;;9.93;6.60;;;;;;;;;;6178518;23;20020;-48
2022/04/03 01:14:40;;;;;;;12.30;6.53;;;;;;;;;;6176609;23;20031;-49
2022/04/03 01:17:05;;;;;;;12.05;6.05;;;;;;;;;;6178735;23;20032;-51
2022/04/03 01:19:31;;;;;;;12.85;7.55;;;;;;;;;;6151251;23;20385;-48
2022/04/03 01:21:56;;;;;;;11.05;7.40;;;;;;;;;;6178559;23;20017;-49
2022/04/03 01:24:22;;;;;;;12.98;6.13;;;;;;;;;;6177372;23;20021;-49
2022/04/03 01:26:47;;;;;;;10.45;6.30;;;;;;;;;;6178695;23;20009;-50
2022/04/03 01:29:13;;;;;;;14.15;5.95;;;;;;;;;;6176612;23;20009;-47
2022/04/03 01:31:38;;;;;;;7.63;5.78;;;;;;;;;;6178017;23;20044;-48
2022/04/03 01:34:04;;;;;;;9.05;6.25;;;;;;;;;;6177580;23;20036;-50
2022/04/03 01:36:29;;;;;;;7.40;5.40;;;;;;;;;;6178124;23;20618;-48
2022/04/03 01:38:54;;;;;;;10.75;6.47;;;;;;;;;;6178114;23;20033;-50
2022/04/03 01:41:20;;;;;;;8.25;5.35;;;;;;;;;;6176686;23;20020;-51
2022/04/03 01:43:45;;;;;;;11.75;6.30;;;;;;;;;;6179721;23;20013;-47
2022/04/03 01:46:10;;;;;;;9.35;5.97;;;;;;;;;;6176163;23;20032;-48
2022/04/03 01:48:35;;;;;;;9.70;4.97;;;;;;;;;;6178315;23;20031;-48
2022/04/03 01:51:01;;;;;;;9.68;6.38;;;;;;;;;;6175282;23;20044;-48
2022/04/03 01:53:26;;;;;;;6.90;4.80;;;;;;;;;;6151811;23;20016;-46
2022/04/03 01:56:03;;;;;;;10.68;5.28;;;;;;;;;;6177946;23;20021;-51
2022/04/03 01:58:28;;;;;;;9.48;5.00;;;;;;;;;;6178405;23;20044;-50
2022/04/03 02:00:53;;;;;;;8.93;5.78;;;;;;;;;;6177710;23;20020;-49
2022/04/03 02:03:19;;;;;;;7.75;5.13;;;;;;;;;;6177094;23;20013;-50
2022/04/03 02:05:44;;;;;;;11.30;5.75;;;;;;;;;;6179180;23;20465;-49
2022/04/03 02:08:09;;;;;;;9.32;5.43;;;;;;;;;;6178076;23;20032;-46
2022/04/03 02:10:35;;;;;;;8.88;5.88;;;;;;;;;;6176658;23;20021;-47
2022/04/03 02:13:00;;;;;;;10.05;5.85;;;;;;;;;;6178683;23;20048;-47
2022/04/03 02:15:25;;;;;;;9.07;5.05;;;;;;;;;;6176764;23;20076;-50
2022/04/03 02:17:50;;;;;;;8.65;5.63;;;;;;;;;;6178494;23;20021;-49
2022/04/03 02:20:16;;;;;;;7.35;5.63;;;;;;;;;;6176220;23;20114;-50
2022/04/03 02:22:41;;;;;;;12.10;6.18;;;;;;;;;;6179352;23;20004;-49
2022/04/03 02:25:09;;;;;;;9.82;5.57;;;;;;;;;;6176641;23;20015;-51
2022/04/03 02:27:35;;;;;;;9.02;6.15;;;;;;;;;;6176824;23;20013;-49
2022/04/03 02:30:00;;;;;;;9.45;6.40;;;;;;;;;;6178262;23;20040;-46
2022/04/03 02:32:25;;;;;;;9.20;5.95;;;;;;;;;;6177353;23;20039;-47
2022/04/03 02:34:52;;;;;;;9.75;6.55;;;;;;;;;;6177632;23;20017;-53
2022/04/03 02:37:18;;;;;;;13.60;6.88;;;;;;;;;;6177146;23;20056;-50
2022/04/03 02:39:44;;;;;;;9.98;6.25;;;;;;;;;;6171305;23;20025;-52
2022/04/03 02:42:09;;;;;;;10.45;6.45;;;;;;;;;;6176635;23;20337;-48
2022/04/03 02:44:34;;;;;;;10.80;6.53;;;;;;;;;;6176743;23;20040;-47
2022/04/03 02:47:00;;;;;;;11.63;7.20;;;;;;;;;;6176781;23;20033;-47
2022/04/03 02:49:25;;;;;;;9.23;5.53;;;;;;;;;;6148406;23;20041;-45
2022/04/03 02:51:51;;;;;;;8.77;5.95;;;;;;;;;;6094507;23;20041;-47
2022/04/03 02:54:16;;;;;;;8.02;5.00;;;;;;;;;;6131394;23;20033;-44
2022/04/03 02:56:41;;;;;;;8.63;5.50;;;;;;;;;;6149352;23;20009;-45
2022/04/03 02:59:07;;;;;;;12.88;5.95;;;;;;;;;;6150431;23;20825;-46
2022/04/03 03:01:32;;;;;;;9.93;5.15;;;;;;;;;;6149105;23;20029;-45
2022/04/03 03:03:57;;;;;;;8.07;5.20;;;;;;;;;;6149784;23;20041;-45
2022/04/03 03:06:23;;;;;;;6.75;5.38;;;;;;;;;;6150497;23;20021;-44
2022/04/03 03:08:48;;;;;;;9.52;5.35;;;;;;;;;;6151106;23;20041;-44
2022/04/03 03:11:14;;;;;;;8.05;5.82;;;;;;;;;;6150230;23;20018;-48
2022/04/03 03:13:39;;;;;;;9.30;6.00;;;;;;;;;;6150169;23;20016;-47
2022/04/03 03:16:05;;;;;;;13.52;6.55;;;;;;;;;;6150614;23;20018;-44
2022/04/03 03:18:30;;;;;;;12.38;6.30;;;;;;;;;;6150771;23;20029;-44
2022/04/03 03:20:55;;;;;;;11.85;6.28;;;;;;;;;;6150919;23;20010;-44
2022/04/03 03:23:20;;;;;;;6.80;5.30;;;;;;;;;;6151613;23;20029;-44
2022/04/03 03:25:46;;;;;;;8.80;6.50;;;;;;;;;;6152528;23;20009;-44
2022/04/03 03:28:11;;;;;;;13.75;6.30;;;;;;;;;;6200289;23;20021;-45
2022/04/03 03:30:37;;;;;;;6.88;5.15;;;;;;;;;;6152634;23;20010;-44
2022/04/03 03:33:02;;;;;;;12.25;6.80;;;;;;;;;;6152093;23;20103;-45
2022/04/03 03:35:27;;;;;;;10.52;5.70;;;;;;;;;;6153635;23;20073;-44
2022/04/03 03:37:53;;;;;;;9.65;6.55;;;;;;;;;;6151992;23;20081;-44
2022/04/03 03:40:18;;;;;;;9.82;6.82;;;;;;;;;;6151262;23;20104;-45
2022/04/03 03:42:43;;;;;;;12.88;7.32;;;;;;;;;;6149181;23;20628;-44
2022/04/03 03:45:10;;;;;;;12.70;7.55;;;;;;;;;;6153114;23;20018;-46
2022/04/03 03:47:35;;;;;;;9.35;6.07;;;;;;;;;;6151391;23;20037;-45
2022/04/03 03:50:02;;;;;;;9.73;6.65;;;;;;;;;;6155804;23;20032;-44
2022/04/03 03:52:28;;;;;;;11.80;7.18;;;;;;;;;;6160503;23;20369;-44
2022/04/03 03:54:53;;;;;;;10.48;6.47;;;;;;;;;;6172645;23;20013;-44
2022/04/03 03:57:19;;;;;;;10.63;6.28;;;;;;;;;;6179209;23;20037;-45
2022/04/03 03:59:45;;;;;;;13.90;7.38;;;;;;;;;;6178953;23;20021;-45
2022/04/03 04:02:10;;;;;;;15.82;7.03;;;;;;;;;;6177937;23;20023;-46
2022/04/03 04:04:36;;;;;;;10.15;6.47;;;;;;;;;;6178815;23;20009;-44
2022/04/03 04:07:01;;;;;;;12.55;7.22;;;;;;;;;;6180089;23;20047;-45
2022/04/03 04:09:26;;;;;;;11.15;6.80;;;;;;;;;;6179308;23;20024;-43
2022/04/03 04:11:51;;;;;;;10.02;6.13;;;;;;;;;;6179590;23;20009;-44
2022/04/03 04:14:17;;;;;;;13.15;7.15;;;;;;;;;;6179657;23;20013;-46
2022/04/03 04:16:42;;;;;;;9.23;5.95;;;;;;;;;;6178165;23;20017;-44
2022/04/03 04:19:08;;;;;;;16.08;7.32;;;;;;;;;;6179939;23;20025;-45
2022/04/03 04:21:33;;;;;;;10.43;6.78;;;;;;;;;;6177653;23;20021;-45
2022/04/03 04:23:58;;;;;;;9.43;6.65;;;;;;;;;;6180558;23;20492;-45
2022/04/03 04:26:24;;;;;;;9.88;5.88;;;;;;;;;;6177980;23;20024;-45
2022/04/03 04:28:50;;;;;;;8.30;5.30;;;;;;;;;;6203321;23;20027;-45
2022/04/03 04:31:16;;;;;;;10.80;6.13;;;;;;;;;;6179679;23;20100;-47
2022/04/03 04:33:41;;;;;;;9.20;5.63;;;;;;;;;;6179456;23;20009;-44
2022/04/03 04:36:07;;;;;;;13.98;6.72;;;;;;;;;;6180048;23;20021;-46
2022/04/03 04:38:32;;;;;;;10.95;6.38;;;;;;;;;;6178419;23;20025;-45
2022/04/03 04:40:57;;;;;;;8.45;6.05;;;;;;;;;;6179927;23;20013;-45
2022/04/03 04:43:23;;;;;;;9.68;5.68;;;;;;;;;;6178763;23;20013;-44
2022/04/03 04:45:48;;;;;;;7.25;5.85;;;;;;;;;;6179970;23;20052;-44
2022/04/03 04:48:13;;;;;;;13.05;5.60;;;;;;;;;;6178392;23;20009;-49
2022/04/03 04:50:38;;;;;;;12.60;6.45;;;;;;;;;;6178838;23;20024;-46
2022/04/03 04:53:04;;;;;;;12.00;6.65;;;;;;;;;;6201303;23;20072;-44
2022/04/03 04:55:29;;;;;;;9.18;5.80;;;;;;;;;;6178998;23;20333;-45
2022/04/03 04:57:56;;;;;;;9.85;6.07;;;;;;;;;;6178531;23;20032;-45
2022/04/03 05:00:22;;;;;;;9.90;7.20;;;;;;;;;;6179867;23;20021;-46
2022/04/03 05:02:48;;;;;;;10.80;7.00;;;;;;;;;;6176582;23;20068;-44
2022/04/03 05:05:14;;;;;;;11.30;8.10;;;;;;;;;;6178438;23;20013;-47
2022/04/03 05:07:39;;;;;;;12.50;7.57;;;;;;;;;;6177655;23;20036;-46
2022/04/03 05:10:05;;;;;;;10.75;6.55;;;;;;;;;;6180551;23;20010;-44
2022/04/03 05:12:31;;;;;;;10.52;6.43;;;;;;;;;;6177478;23;20020;-45
2022/04/03 05:14:57;;;;;;;16.33;6.80;;;;;;;;;;6179268;23;20017;-45
2022/04/03 05:17:22;;;;;;;11.15;7.70;;;;;;;;;;6177063;23;20861;-46
2022/04/03 05:19:47;;;;;;;8.02;6.28;;;;;;;;;;6202613;23;20017;-47
2022/04/03 05:22:12;;;;;;;12.50;8.10;;;;;;;;;;6178394;23;20415;-44
2022/04/03 05:24:38;;;;;;;13.30;7.78;;;;;;;;;;6178541;23;20039;-47
2022/04/03 05:27:05;;;;;;;14.35;8.80;;;;;;;;;;6178064;23;20017;-47
2022/04/03 05:29:30;;;;;;;14.52;7.70;;;;;;;;;;6178483;23;20016;-49
2022/04/03 05:31:55;;;;;;;12.57;6.65;;;;;;;;;;6178049;23;20233;-46
2022/04/03 05:34:20;;;;;;;11.18;8.32;;;;;;;;;;6178242;23;20017;-45
2022/04/03 05:36:46;;;;;;;11.88;8.02;;;;;;;;;;6178659;23;20043;-45
2022/04/03 05:39:11;;;;;;;15.80;8.02;;;;;;;;;;6202090;23;20033;-44
2022/04/03 05:41:37;;;;;;;14.68;8.40;;;;;;;;;;6177421;23;20297;-45
2022/04/03 05:44:03;;;;;;;18.50;9.32;;;;;;;;;;6179048;23;20024;-45
2022/04/03 05:46:28;;;;;;;18.02;8.70;;;;;;;;;;6177375;23;20009;-46
2022/04/03 05:48:54;;;;;;;15.07;9.18;;;;;;;;;;6179420;23;20020;-46
2022/04/03 05:51:19;;;;;;;18.70;9.75;;;;;;;;;;6176973;23;20471;-46
2022/04/03 05:53:45;;;;;;;14.27;8.32;;;;;;;;;;6178095;23;20013;-46
2022/04/03 05:56:11;;;;;;;16.05;9.73;;;;;;;;;;6177657;23;20028;-47
2022/04/03 05:58:37;;;;;;;16.40;9.50;;;;;;;;;;6177504;23;20353;-45
2022/04/03 06:01:02;;;;;;;15.38;9.10;;;;;;;;;;6177815;23;20121;-45
2022/04/03 06:03:28;;;;;;;17.83;9.70;;;;;;;;;;6178386;23;20013;-47
2022/04/03 06:05:53;;;;;;;14.32;9.50;;;;;;;;;;6177441;23;20024;-44
2022/04/03 06:08:18;;;;;;;14.25;8.20;;;;;;;;;;6200672;23;20939;-45
2022/04/03 06:10:43;;;;;;;12.18;8.07;;;;;;;;;;6200921;23;20013;-48
2022/04/03 06:13:12;;;;;;;11.45;8.00;;;;;;;;;;6178564;23;20201;-46
2022/04/03 06:15:38;;;;;;;18.33;8.27;;;;;;;;;;6199330;23;20462;-46
2022/04/03 06:18:05;;;;;;;13.32;7.38;;;;;;;;;;6178669;23;20024;-47
2022/04/03 06:20:30;;;;;;;13.30;7.65;;;;;;;;;;6177166;23;20072;-47
2022/04/03 06:22:56;;;;;;;15.13;8.40;;;;;;;;;;6178802;23;20021;-46
2022/04/03 06:25:21;;;;;;;14.70;7.07;;;;;;;;;;6176646;23;20025;-47
2022/04/03 06:27:46;;;;;;;13.80;7.57;;;;;;;;;;6178853;23;20020;-47
2022/04/03 06:30:12;;;;;;;13.98;8.10;;;;;;;;;;6177594;23;20060;-45
2022/04/03 06:32:38;;;;;;;13.65;7.60;;;;;;;;;;6200978;23;20017;-44
2022/04/03 06:35:03;;;;;;;12.02;6.95;;;;;;;;;;6200873;23;20339;-45
2022/04/03 06:37:28;;;;;;;17.25;9.43;;;;;;;;;;6178125;23;20076;-47
2022/04/03 06:39:54;;;;;;;11.52;7.13;;;;;;;;;;6177571;23;20020;-46
2022/04/03 06:42:19;;;;;;;14.20;8.73;;;;;;;;;;6201483;23;20009;-45
2022/04/03 06:44:44;;;;;;;17.25;10.43;;;;;;;;;;6178313;23;20013;-45
2022/04/03 06:47:10;;;;;;;19.77;9.77;;;;;;;;;;6178956;23;20044;-47
2022/04/03 06:49:35;;;;;;;22.95;10.85;;;;;;;;;;6176665;23;20205;-46
2022/04/03 06:52:01;;;;;;;21.23;10.35;;;;;;;;;;6178870;23;20033;-46
2022/04/03 06:54:26;;;;;;;21.05;10.32;;;;;;;;;;6176596;23;20048;-46
2022/04/03 06:56:52;;;;;;;17.13;10.82;;;;;;;;;;6178205;23;20017;-44
2022/04/03 06:59:17;;;;;;;17.45;9.75;;;;;;;;;;6176364;23;20036;-47
2022/04/03 07:01:42;;;;;;;18.38;10.80;;;;;;;;;;6179030;23;20013;-48
2022/04/03 07:04:08;;;;;;;20.60;12.30;;;;;;;;;;6177156;23;20005;-45
2022/04/03 07:06:33;;;;;;;19.15;11.70;;;;;;;;;;6178239;23;20092;-46
2022/04/03 07:08:58;;;;;;;22.40;11.73;;;;;;;;;;6177139;23;20009;-48
2022/04/03 07:11:23;;;;;;;16.10;10.38;;;;;;;;;;6177821;23;20009;-45
2022/04/03 07:13:49;;;;;;;16.42;9.30;;;;;;;;;;6176915;23;20088;-47
2022/04/03 07:16:14;;;;;;;18.17;9.75;;;;;;;;;;6176618;23;20017;-45
2022/04/03 07:18:40;;;;;;;18.23;10.15;;;;;;;;;;6176907;23;20021;-45
2022/04/03 07:21:05;;;;;;;17.35;10.30;;;;;;;;;;6178707;23;20013;-46
2022/04/03 07:23:30;;;;;;;15.45;9.80;;;;;;;;;;6176903;23;20015;-45
2022/04/03 07:25:55;;;;;;;20.65;11.73;;;;;;;;;;6201814;23;20076;-46
2022/04/03 07:28:22;;;;;;;14.57;9.15;;;;;;;;;;6176152;23;20032;-46
2022/04/03 07:30:47;;;;;;;15.40;9.32;;;;;;;;;;6179076;23;20016;-46
2022/04/03 07:33:12;;;;;;;16.52;9.60;;;;;;;;;;6176779;23;20064;-47
2022/04/03 07:35:38;;;;;;;14.05;9.85;;;;;;;;;;6177597;23;20013;-49
2022/04/03 07:38:03;;;;;;;20.95;10.93;;;;;;;;;;6177508;23;20028;-46
2022/04/03 07:40:29;;;;;;;20.13;9.27;;;;;;;;;;6177866;23;20016;-47
2022/04/03 07:42:54;;;;;;;11.55;9.00;;;;;;;;;;6178400;23;20021;-44
2022/04/03 07:45:19;;;;;;;14.00;9.32;;;;;;;;;;6176765;23;20008;-45
2022/04/03 07:47:49;;;;;;;13.05;9.10;;;;;;;;;;6177668;23;20068;-44
2022/04/03 07:50:15;;;;;;;12.30;8.13;;;;;;;;;;6177815;23;20079;-44
2022/04/03 07:52:41;;;;;;;18.27;9.20;;;;;;;;;;6176777;23;20035;-46
2022/04/03 07:55:07;;;;;;;15.98;9.43;;;;;;;;;;6178187;23;20013;-47
2022/04/03 07:57:32;;;;;;;17.58;7.82;;;;;;;;;;6176823;23;20136;-45
2022/04/03 07:59:58;;;;;;;14.93;8.48;;;;;;;;;;6177166;23;20021;-44
2022/04/03 08:02:23;;;;;;;15.13;7.95;;;;;;;;;;6175770;23;20094;-46
2022/04/03 08:04:48;;;;;;;15.68;7.78;;;;;;;;;;6177060;23;20025;-46
2022/04/03 08:07:13;;;;;;;17.83;7.90;;;;;;;;;;6176988;23;20009;-48
2022/04/03 08:09:38;;;;;;;12.75;6.85;;;;;;;;;;6170044;23;20069;-46
2022/04/03 08:12:04;;;;;;;9.27;6.93;;;;;;;;;;6179470;23;20371;-50
2022/04/03 08:14:30;;;;;;;13.20;6.55;;;;;;;;;;6176550;23;20041;-45
2022/04/03 08:16:55;;;;;;;10.57;6.88;;;;;;;;;;6180473;23;20069;-44
2022/04/03 08:19:20;;;;;;;20.27;7.82;;;;;;;;;;6177105;23;20907;-46
2022/04/03 08:21:45;;;;;;;13.35;7.25;;;;;;;;;;6180308;23;20071;-46
2022/04/03 08:24:11;;;;;;;11.65;6.85;;;;;;;;;;6179624;23;20012;-45
2022/04/03 08:26:36;;;;;;;14.50;6.97;;;;;;;;;;6178707;23;20017;-45
2022/04/03 08:29:01;;;;;;;11.25;7.00;;;;;;;;;;6180369;23;20028;-44
2022/04/03 08:31:28;;;;;;;10.88;6.93;;;;;;;;;;6169505;23;20087;-44
2022/04/03 08:33:53;;;;;;;17.35;7.28;;;;;;;;;;6172013;23;20100;-46
2022/04/03 08:36:18;;;;;;;16.25;7.75;;;;;;;;;;6177504;23;20020;-46
2022/04/03 08:38:44;;;;;;;13.73;6.30;;;;;;;;;;6178716;23;20025;-48
2022/04/03 08:41:09;;;;;;;8.38;5.72;;;;;;;;;;6179888;23;20017;-48
2022/04/03 08:43:35;;;;;;;9.25;6.10;;;;;;;;;;6178625;23;20012;-44
2022/04/03 08:46:00;;;;;;;12.23;6.93;;;;;;;;;;6178118;23;20027;-45
2022/04/03 08:48:30;;;;;;;10.75;5.90;;;;;;;;;;6178257;23;20095;-45
2022/04/03 08:50:56;;;;;;;11.40;5.50;;;;;;;;;;6178569;23;20021;-44
2022/04/03 08:53:24;;;;;;;10.15;5.00;;;;;;;;;;6177461;23;20040;-47
2022/04/03 08:55:50;;;;;;;12.57;6.05;;;;;;;;;;6178427;23;20411;-45
2022/04/03 08:58:16;;;;;;;8.55;4.97;;;;;;;;;;6177857;23;20021;-44
2022/04/03 09:00:41;;;;;;;13.15;5.50;;;;;;;;;;6199450;23;20044;-45
2022/04/03 09:03:07;;;;;;;10.75;5.43;;;;;;;;;;6178938;23;20108;-46
2022/04/03 09:05:36;;;;;;;11.85;7.32;;;;;;;;;;6178558;23;20013;-44
2022/04/03 09:08:02;;;;;;;15.25;7.78;;;;;;;;;;6178844;23;20021;-43
2022/04/03 09:10:28;;;;;;;14.75;8.05;;;;;;;;;;6179910;23;20070;-45
2022/04/03 09:12:53;;;;;;;16.85;8.40;;;;;;;;;;6179517;23;20013;-50
2022/04/03 09:15:20;;;;;;;13.40;8.50;;;;;;;;;;6178128;23;20017;-48
2022/04/03 09:17:49;;;;;;;12.27;7.15;;;;;;;;;;6178215;23;20012;-45
2022/04/03 09:20:18;;;;;;;17.90;9.13;;;;;;;;;;6177957;23;20251;-46
2022/04/03 09:22:45;;;;;;;19.40;9.57;;;;;;;;;;6179154;23;20277;-44
2022/04/03 09:25:12;;;;;;;16.40;8.25;;;;;;;;;;6178366;23;20021;-50
2022/04/03 09:27:47;;;;;;;15.32;8.88;;;;;;;;;;6202375;23;20040;-45
2022/04/03 09:30:12;;;;;;;22.83;10.07;;;;;;;;;;6178501;23;20104;-46
2022/04/03 09:32:48;;;;;;;19.02;10.07;;;;;;;;;;6174021;23;20016;-44
2022/04/03 09:35:13;;;;;;;16.08;9.35;;;;;;;;;;6178087;23;20017;-52
2022/04/03 09:37:39;;;;;;;18.92;9.80;;;;;;;;;;6175666;23;20024;-44
2022/04/03 09:40:05;;;;;;;15.00;9.68;;;;;;;;;;6180046;23;20020;-45
2022/04/03 09:42:30;;;;;;;17.88;10.30;;;;;;;;;;6176719;23;20076;-46
2022/04/03 09:44:55;;;;;;;24.70;12.45;;;;;;;;;;6177964;23;20489;-44
2022/04/03 09:47:21;;;;;;;19.88;11.10;;;;;;;;;;6175730;23;20020;-44
2022/04/03 09:49:57;;;;;;;26.55;11.57;;;;;;;;;;6179369;23;20072;-46
2022/04/03 09:52:41;;;;;;;16.80;9.50;;;;;;;;;;6175876;23;20300;-46
2022/04/03 09:55:07;;;;;;;17.50;10.18;;;;;;;;;;6178751;23;20017;-44
2022/04/03 09:57:33;;;;;;;21.70;9.48;;;;;;;;;;6177193;23;20021;-44
2022/04/03 09:59:58;;;;;;;16.67;9.15;;;;;;;;;;6178833;23;20032;-47
2022/04/03 10:02:24;;;;;;;17.60;10.23;;;;;;;;;;6175184;23;20515;-47
2022/04/03 10:04:50;;;;;;;18.92;9.48;;;;;;;;;;6179351;23;20021;-45
2022/04/03 10:07:16;;;;;;;17.63;9.70;;;;;;;;;;6176885;23;20013;-44
2022/04/03 10:09:48;;;;;;;16.10;9.20;;;;;;;;;;6178487;23;20036;-48
2022/04/03 10:12:14;;;;;;;20.15;10.15;;;;;;;;;;6177327;23;20017;-46
2022/04/03 10:14:40;;;;;;;15.50;8.63;;;;;;;;;;6178513;23;20017;-44
2022/04/03 10:17:05;;;;;;;21.67;10.60;;;;;;;;;;6173326;23;20032;-46
2022/04/03 10:19:30;;;;;;;19.52;10.75;;;;;;;;;;6178493;23;20029;-46
2022/04/03 10:21:56;;;;;;;18.88;10.02;;;;;;;;;;6177143;23;20066;-46
2022/04/03 10:24:23;;;;;;;17.75;10.00;;;;;;;;;;6172274;23;20016;-45
2022/04/03 10:26:52;;;;;;;17.63;10.25;;;;;;;;;;6174226;23;20013;-48
2022/04/03 10:29:17;;;;;;;18.42;8.95;;;;;;;;;;6173528;23;20013;-45
2022/04/03 10:31:59;;;;;;;14.93;8.82;;;;;;;;;;6173356;23;20120;-45
2022/04/03 10:34:27;;;;;;;15.93;8.48;;;;;;;;;;6173326;23;20017;-47
2022/04/03 10:36:53;;;;;;;13.90;7.82;;;;;;;;;;6171919;23;20013;-46
2022/04/03 10:39:25;;;;;;;11.68;6.78;;;;;;;;;;6174367;23;20029;-47
2022/04/03 10:42:10;;;;;;;15.43;8.00;;;;;;;;;;6196410;23;20020;-44
2022/04/03 10:44:36;;;;;;;17.95;9.55;;;;;;;;;;6173298;23;20483;-46
2022/04/03 10:47:04;;;;;;;14.50;8.55;;;;;;;;;;6172279;23;20027;-44
2022/04/03 10:49:40;;;;;;;18.20;10.05;;;;;;;;;;6174022;23;20036;-44
2022/04/03 10:52:07;;;;;;;24.75;9.82;;;;;;;;;;6174717;23;20036;-47
2022/04/03 10:54:40;;;;;;;17.67;9.50;;;;;;;;;;6169518;23;20017;-45
2022/04/03 10:57:24;;;;;;;16.85;8.45;;;;;;;;;;6174715;23;20069;-47
2022/04/03 11:00:09;;;;;;;11.70;6.53;;;;;;;;;;6170616;23;20025;-48
2022/04/03 11:02:34;;;;;;;12.85;7.20;;;;;;;;;;6171079;23;20483;-48
2022/04/03 11:05:19;;;;;;;10.10;6.40;;;;;;;;;;6198836;23;20032;-45
2022/04/03 11:07:45;;;;;;;12.88;7.38;;;;;;;;;;6173300;23;20012;-46
2022/04/03 11:10:10;;;;;;;11.90;6.35;;;;;;;;;;6201062;23;20388;-48
2022/04/03 11:12:54;;;;;;;9.23;5.78;;;;;;;;;;6195884;23;20013;-45
2022/04/03 11:15:19;;;;;;;11.75;6.15;;;;;;;;;;6196967;23;20013;-45
2022/04/03 11:17:54;;;;;;;9.23;5.53;;;;;;;;;;6171383;23;20077;-45
2022/04/03 11:20:32;;;;;;;15.63;6.43;;;;;;;;;;6174360;23;20041;-47
2022/04/03 11:22:58;;;;;;;12.30;5.75;;;;;;;;;;6177037;23;20017;-47
2022/04/03 11:25:23;;;;;;;8.10;4.93;;;;;;;;;;6173749;23;20029;-46
2022/04/03 11:27:49;;;;;;;10.00;4.70;;;;;;;;;;6176868;23;20460;-45
2022/04/03 11:30:14;;;;;;;8.10;5.22;;;;;;;;;;6174763;23;20095;-45
2022/04/03 11:32:41;;;;;;;10.98;4.15;;;;;;;;;;6176536;23;20092;-46
2022/04/03 11:35:06;;;;;;;7.20;4.50;;;;;;;;;;6175494;23;20520;-47
2022/04/03 11:37:32;;;;;;;10.05;5.03;;;;;;;;;;6176647;23;20025;-47
2022/04/03 11:39:58;;;;;;;9.70;5.07;;;;;;;;;;6175502;23;20029;-46
2022/04/03 11:42:23;;;;;;;7.78;5.10;;;;;;;;;;6175924;23;20037;-45
2022/04/03 11:44:53;;;;;;;11.75;4.82;;;;;;;;;;6173955;23;20443;-46
2022/04/03 11:47:21;;;;;;;6.10;3.20;;;;;;;;;;6177328;23;20027;-47
2022/04/03 11:49:47;;;;;;;6.90;3.20;;;;;;;;;;6175600;23;20450;-48
2022/04/03 11:52:12;;;;;;;5.00;3.28;;;;;;;;;;6179915;23;20017;-45
2022/04/03 11:54:38;;;;;;;5.68;2.60;;;;;;;;;;6175961;23;20013;-46
2022/04/03 11:57:05;;;;;;;5.82;3.28;;;;;;;;;;6178883;23;20084;-46
2022/04/03 11:59:37;;;;;;;3.92;2.20;;;;;;;;;;6177129;23;20051;-47
2022/04/03 12:02:13;;;;;;;9.35;3.10;;;;;;;;;;6179280;23;20021;-46
2022/04/03 12:04:42;;;;;;;4.90;2.47;;;;;;;;;;6178715;23;20009;-46
2022/04/03 12:07:14;;;;;;;7.45;2.85;;;;;;;;;;6178454;23;20020;-49
2022/04/03 12:09:41;;;;;;;3.03;2.30;;;;;;;;;;6147971;23;20005;-44
2022/04/03 12:12:07;;;;;;;3.97;1.98;;;;;;;;;;6150610;23;20013;-45
2022/04/03 12:14:33;;;;;;;6.25;3.30;;;;;;;;;;6146358;23;22533;-45
2022/04/03 12:17:00;;;;;;;4.53;2.30;;;;;;;;;;6147671;23;20021;-47
2022/04/03 12:19:26;;;;;;;2.25;1.67;;;;;;;;;;6147398;23;20049;-48
2022/04/03 12:21:52;;;;;;;2.13;1.80;;;;;;;;;;6150072;23;20269;-47
2022/04/03 12:24:22;;;;;;;2.42;2.00;;;;;;;;;;6147180;23;20324;-46
2022/04/03 12:26:47;;;;;;;1.80;1.23;;;;;;;;;;6148818;23;20024;-46
2022/04/03 12:29:13;;;;;;;2.08;1.50;;;;;;;;;;6147911;23;20013;-46
2022/04/03 12:31:39;;;;;;;1.55;1.17;;;;;;;;;;6178889;23;20040;-47
2022/04/03 12:34:04;;;;;;;2.92;1.10;;;;;;;;;;6170959;23;20432;-46
2022/04/03 12:36:41;;;;;;;2.50;1.27;;;;;;;;;;6174944;23;20017;-48
2022/04/03 12:39:26;;;;;;;3.78;1.58;;;;;;;;;;6175350;23;20060;-45
2022/04/03 12:41:51;;;;;;;2.55;1.50;;;;;;;;;;6170953;23;20044;-45
2022/04/03 12:44:17;;;;;;;2.58;1.63;;;;;;;;;;6174436;23;20017;-47
2022/04/03 12:46:44;;;;;;;1.38;1.17;;;;;;;;;;6172713;23;20009;-46
2022/04/03 12:49:14;;;;;;;1.60;1.13;;;;;;;;;;6175972;23;20095;-50
2022/04/03 12:51:39;;;;;;;;;;;;;;;;;;6169877;23;20100;-48
2022/04/03 12:54:04;;;;;;;2.70;2.05;;;;;;;;;;6170033;23;19909;-46
2022/04/03 12:58:24;;;;;;;1.63;0.90;;;;;;;;;;6172250;23;20028;-48
2022/04/03 12:59:18;;;;;;;2.90;1.58;;;;;;;;;;6173888;23;20036;-49
2022/04/03 13:01:44;;;;;;;2.97;1.23;;;;;;;;;;6176891;23;20008;-45
2022/04/03 13:04:27;;;;;;;3.17;1.73;;;;;;;;;;6175085;23;20021;-46
2022/04/03 13:06:53;;;;;;;4.75;1.48;;;;;;;;;;6177678;23;20033;-45
2022/04/03 13:09:18;;;;;;;5.43;1.30;;;;;;;;;;6196822;23;20017;-46
2022/04/03 13:11:48;;;;;;;2.40;2.10;;;;;;;;;;6175942;23;20048;-46
2022/04/03 13:14:19;;;;;;;2.33;1.30;;;;;;;;;;6175594;23;20027;-47
2022/04/03 13:16:45;;;;;;;2.78;1.75;;;;;;;;;;6177178;23;20009;-45
2022/04/03 13:19:11;;;;;;;3.40;1.70;;;;;;;;;;6176829;23;20029;-47
2022/04/03 13:21:37;;;;;;;1.00;0.90;;;;;;;;;;6171073;23;20394;-48
2022/04/03 13:24:03;;;;;;;3.63;1.20;;;;;;;;;;6198653;23;20033;-46
2022/04/03 13:26:29;;;;;;;1.52;1.20;;;;;;;;;;6176773;23;20017;-46
2022/04/03 13:28:54;;;;;;;1.40;1.15;;;;;;;;;;6179011;23;20020;-44
2022/04/03 13:31:20;;;;;;;1.80;1.40;;;;;;;;;;6175573;23;20036;-47
2022/04/03 13:33:45;;;;;;;2.03;1.27;;;;;;;;;;6177693;23;20015;-44
2022/04/03 13:36:11;;;;;;;2.65;1.25;;;;;;;;;;6176491;23;20013;-49
2022/04/03 13:38:36;;;;;;;2.90;1.15;;;;;;;;;;6201186;23;20047;-45
2022/04/03 13:41:02;;;;;;;2.03;1.40;;;;;;;;;;6176394;23;20055;-46
2022/04/03 13:43:27;;;;;;;1.65;1.52;;;;;;;;;;6178334;23;20013;-44
2022/04/03 13:46:00;;;;;;;3.33;1.77;;;;;;;;;;6178165;23;20320;-46
2022/04/03 13:48:35;;;;;;;2.72;1.98;;;;;;;;;;6176888;23;20005;-45
2022/04/03 13:51:01;;;;;;;2.92;1.83;;;;;;;;;;6175399;23;20036;-46
2022/04/03 13:53:26;;;;;;;5.22;1.80;;;;;;;;;;6175565;23;20095;-45
2022/04/03 13:55:52;;;;;;;3.10;2.38;;;;;;;;;;6176980;23;20024;-45
2022/04/03 13:58:18;;;;;;;7.75;3.25;;;;;;;;;;6175766;23;20363;-46
2022/04/03 14:00:43;;;;;;;3.00;2.50;;;;;;;;;;6175632;23;20064;-49
2022/04/03 14:03:08;;;;;;;5.70;3.90;;;;;;;;;;6176408;23;20036;-48
2022/04/03 14:05:34;;;;;;;4.38;2.42;;;;;;;;;;6176976;23;20016;-47
2022/04/03 14:07:59;;;;;;;2.67;2.47;;;;;;;;;;6175783;23;20016;-47
2022/04/03 14:10:24;;;;;;;4.10;2.33;;;;;;;;;;6199688;23;20389;-46
2022/04/03 14:12:50;;;;;;;2.28;1.90;;;;;;;;;;6176351;23;20025;-46
2022/04/03 14:15:15;;;;;;;2.63;1.80;;;;;;;;;;6175124;23;20021;-45
2022/04/03 14:17:41;;;;;;;3.65;2.30;;;;;;;;;;6176194;23;20093;-45
2022/04/03 14:20:08;;;;;;;2.60;2.00;;;;;;;;;;6175856;23;20025;-45
2022/04/03 14:22:34;;;;;;;4.22;2.30;;;;;;;;;;6176190;23;20028;-50
2022/04/03 14:24:59;;;;;;;6.50;3.28;;;;;;;;;;6201279;23;20012;-47
2022/04/03 14:27:24;;;;;;;3.10;2.22;;;;;;;;;;6175777;23;20067;-45
2022/04/03 14:29:50;;;;;;;3.15;2.25;;;;;;;;;;6178798;23;20047;-50